createdAt,value
2022-09-14T00:01:25.203Z,15.43
2022-09-14T00:03:53.583Z,15.40
2022-09-14T00:06:20.322Z,15.42
2022-09-14T00:08:50.903Z,15.28
2022-09-14T00:11:17.782Z,15.45
2022-09-14T00:13:45.903Z,15.51
2022-09-14T00:16:18.265Z,15.53
2022-09-14T00:18:45.422Z,15.38
2022-09-14T00:21:13.248Z,15.41
2022-09-14T00:23:42.024Z,15.44
2022-09-14T00:26:13.042Z,15.66
2022-09-14T00:28:45.929Z,15.64
2022-09-14T00:31:12.991Z,15.47
2022-09-14T00:33:42.449Z,15.62
2022-09-14T00:36:14.558Z,15.60
2022-09-14T00:38:42.197Z,15.63
2022-09-14T00:41:13.206Z,15.92
2022-09-14T00:44:05.916Z,15.90
2022-09-14T00:46:37.235Z,15.85
2022-09-14T00:49:10.540Z,15.76
2022-09-14T00:51:40.125Z,16.00
2022-09-14T00:54:07.898Z,15.77
2022-09-14T00:56:34.818Z,15.64
2022-09-14T00:59:09.115Z,15.68
2022-09-14T01:01:35.955Z,15.38
2022-09-14T01:04:02.747Z,15.52
2022-09-14T01:06:50.627Z,15.61
2022-09-14T01:10:03.511Z,15.69
2022-09-14T01:12:54.939Z,15.84
2022-09-14T01:15:32.058Z,15.72
2022-09-14T01:18:21.315Z,15.71
2022-09-14T01:20:59.433Z,15.77
2022-09-14T01:23:47.814Z,15.83
2022-09-14T01:26:26.144Z,15.88
2022-09-14T01:29:19.978Z,15.77
2022-09-14T01:32:00.622Z,15.66
2022-09-14T01:34:40.986Z,15.66
2022-09-14T01:37:17.058Z,15.68
2022-09-14T01:39:49.062Z,15.83
2022-09-14T01:42:18.674Z,15.80
2022-09-14T01:44:49.542Z,15.90
2022-09-14T01:47:39.362Z,15.86
2022-09-14T01:50:19.085Z,15.61
2022-09-14T01:52:54.626Z,15.64
2022-09-14T01:55:31.613Z,15.57
2022-09-14T01:58:10.633Z,15.48
2022-09-14T02:00:42.930Z,15.44
2022-09-14T02:03:33.991Z,15.59
2022-09-14T02:06:13.058Z,15.32
2022-09-14T02:08:39.744Z,15.29
2022-09-14T02:11:06.756Z,15.55
2022-09-14T02:13:33.603Z,15.40
2022-09-14T02:16:00.356Z,15.35
2022-09-14T02:18:27.174Z,15.42
2022-09-14T02:21:01.662Z,15.52
2022-09-14T02:23:28.443Z,15.36
2022-09-14T02:25:56.059Z,15.18
2022-09-14T02:28:22.702Z,15.35
2022-09-14T02:31:27.480Z,15.04
2022-09-14T02:34:26.925Z,15.20
2022-09-14T02:37:15.804Z,15.17
2022-09-14T02:39:45.505Z,15.07
2022-09-14T02:42:37.648Z,14.92
2022-09-14T02:45:49.162Z,15.09
2022-09-14T02:48:30.760Z,15.05
2022-09-14T02:51:01.610Z,15.16
2022-09-14T02:53:38.686Z,15.17
2022-09-14T02:56:08.878Z,15.07
2022-09-14T02:58:38.745Z,15.05
2022-09-14T03:01:07.501Z,14.97
2022-09-14T03:03:35.800Z,14.99
2022-09-14T03:06:02.782Z,14.93
2022-09-14T03:08:29.766Z,14.96
2022-09-14T03:10:56.667Z,14.92
2022-09-14T03:13:23.544Z,14.78
2022-09-14T03:15:50.381Z,14.88
2022-09-14T03:18:17.859Z,14.64
2022-09-14T03:20:44.956Z,14.40
2022-09-14T03:23:12.855Z,14.64
2022-09-14T03:25:41.806Z,14.20
2022-09-14T03:28:09.864Z,13.98
2022-09-14T03:30:36.775Z,14.01
2022-09-14T03:33:03.819Z,13.81
2022-09-14T03:35:31.589Z,14.32
2022-09-14T03:37:59.533Z,14.35
2022-09-14T03:40:26.587Z,14.35
2022-09-14T03:42:54.570Z,14.55
2022-09-14T03:45:22.257Z,14.54
2022-09-14T03:47:49.915Z,14.41
2022-09-14T03:50:18.297Z,14.32
2022-09-14T03:52:45.070Z,14.49
2022-09-14T03:55:11.882Z,14.32
2022-09-14T03:57:39.026Z,14.20
2022-09-14T04:00:07.364Z,14.35
2022-09-14T04:02:34.094Z,14.48
2022-09-14T04:05:00.747Z,14.53
2022-09-14T04:07:27.655Z,14.52
2022-09-14T04:09:54.282Z,14.46
2022-09-14T04:12:20.896Z,14.48
2022-09-14T04:14:47.570Z,14.23
2022-09-14T04:17:14.243Z,14.53
2022-09-14T04:19:42.406Z,14.49
2022-09-14T04:22:09.149Z,14.50
2022-09-14T04:24:35.868Z,14.38
2022-09-14T04:27:02.558Z,14.47
2022-09-14T04:29:30.814Z,14.50
2022-09-14T04:31:58.109Z,14.61
2022-09-14T04:34:25.020Z,14.51
2022-09-14T04:36:51.742Z,14.20
2022-09-14T04:39:18.658Z,14.19
2022-09-14T04:41:45.351Z,14.30
2022-09-14T04:44:12.373Z,14.02
2022-09-14T04:46:46.014Z,13.95
2022-09-14T04:49:14.028Z,13.73
2022-09-14T04:51:40.691Z,13.75
2022-09-14T04:54:07.693Z,13.57
2022-09-14T04:56:37.187Z,13.68
2022-09-14T04:59:05.841Z,13.59
2022-09-14T05:01:39.629Z,13.78
2022-09-14T05:04:07.623Z,13.89
2022-09-14T05:06:36.443Z,13.96
2022-09-14T05:09:05.045Z,14.21
2022-09-14T05:11:33.710Z,14.02
2022-09-14T05:14:01.739Z,14.11
2022-09-14T05:16:30.814Z,14.09
2022-09-14T05:19:01.957Z,13.95
2022-09-14T05:21:30.015Z,13.82
2022-09-14T05:23:58.808Z,14.02
2022-09-14T05:26:27.773Z,14.12
2022-09-14T05:28:56.915Z,14.04
2022-09-14T05:31:25.074Z,14.06
2022-09-14T05:33:52.099Z,14.03
2022-09-14T05:36:19.139Z,14.05
2022-09-14T05:38:46.219Z,14.16
2022-09-14T05:41:14.322Z,14.08
2022-09-14T05:43:42.019Z,14.11
2022-09-14T05:46:12.849Z,14.04
2022-09-14T05:48:40.449Z,14.20
2022-09-14T05:51:21.865Z,14.35
2022-09-14T05:53:53.873Z,14.37
2022-09-14T05:56:21.706Z,14.36
2022-09-14T05:58:49.430Z,14.52
2022-09-14T06:01:17.668Z,14.46
2022-09-14T06:03:45.152Z,14.64
2022-09-14T06:06:14.782Z,14.56
2022-09-14T06:08:41.587Z,14.61
2022-09-14T06:11:17.159Z,14.36
2022-09-14T06:13:44.821Z,14.44
2022-09-14T06:16:15.982Z,14.69
2022-09-14T06:18:44.565Z,14.55
2022-09-14T06:21:15.313Z,14.82
2022-09-14T06:23:43.033Z,14.82
2022-09-14T06:26:10.521Z,13.99
2022-09-14T06:28:37.371Z,14.37
2022-09-14T06:31:04.785Z,14.47
2022-09-14T06:33:32.124Z,14.57
2022-09-14T06:36:01.971Z,14.75
2022-09-14T06:38:29.475Z,14.53
2022-09-14T06:41:01.698Z,14.48
2022-09-14T06:43:31.339Z,14.99
2022-09-14T06:46:04.601Z,14.90
2022-09-14T06:48:32.308Z,15.11
2022-09-14T06:50:59.015Z,14.95
2022-09-14T06:53:25.781Z,14.55
2022-09-14T06:55:52.843Z,14.84
2022-09-14T06:58:19.541Z,14.61
2022-09-14T07:00:46.336Z,14.74
2022-09-14T07:03:13.080Z,14.54
2022-09-14T07:05:39.891Z,14.87
2022-09-14T07:08:11.827Z,14.55
2022-09-14T07:10:39.180Z,14.38
2022-09-14T07:13:05.951Z,14.93
2022-09-14T07:15:33.535Z,15.55
2022-09-14T07:18:00.533Z,15.90
2022-09-14T07:20:27.267Z,15.45
2022-09-14T07:22:54.088Z,15.12
2022-09-14T07:25:20.866Z,15.57
2022-09-14T07:27:47.708Z,15.20
2022-09-14T07:30:14.467Z,15.41
2022-09-14T07:32:41.210Z,15.07
2022-09-14T07:35:08.823Z,15.34
2022-09-14T07:37:35.772Z,15.14
2022-09-14T07:40:02.793Z,15.50
2022-09-14T07:42:30.001Z,15.65
2022-09-14T07:44:56.761Z,15.48
2022-09-14T07:47:23.499Z,15.82
2022-09-14T07:49:50.290Z,15.65
2022-09-14T07:52:17.223Z,15.59
2022-09-14T07:54:43.971Z,15.55
2022-09-14T07:57:10.604Z,15.23
2022-09-14T07:59:37.912Z,15.55
2022-09-14T08:02:09.064Z,15.40
2022-09-14T08:04:36.455Z,15.45
2022-09-14T08:07:04.128Z,15.42
2022-09-14T08:09:31.214Z,15.49
2022-09-14T08:11:58.220Z,15.19
2022-09-14T08:14:25.498Z,15.60
2022-09-14T08:16:52.561Z,15.90
2022-09-14T08:19:21.247Z,16.15
2022-09-14T08:21:48.298Z,16.21
2022-09-14T08:24:21.136Z,15.93
2022-09-14T08:26:49.052Z,15.83
2022-09-14T08:29:17.441Z,15.97
2022-09-14T08:31:46.082Z,16.01
2022-09-14T08:34:14.129Z,15.55
2022-09-14T08:36:42.474Z,15.99
2022-09-14T08:39:11.044Z,16.16
2022-09-14T08:41:44.001Z,16.20
2022-09-14T08:44:32.733Z,16.45
2022-09-14T08:47:06.051Z,16.35
2022-09-14T08:49:46.139Z,16.43
2022-09-14T08:52:14.220Z,16.24
2022-09-14T08:54:41.299Z,15.89
2022-09-14T08:57:17.654Z,16.82
2022-09-14T08:59:59.629Z,17.16
2022-09-14T09:02:56.796Z,16.70
2022-09-14T09:05:36.493Z,17.22
2022-09-14T09:08:21.687Z,17.39
2022-09-14T09:10:53.047Z,17.63
2022-09-14T09:13:24.177Z,17.01
2022-09-14T09:15:55.497Z,17.56
2022-09-14T09:19:10.206Z,17.71
2022-09-14T09:21:44.173Z,17.80
2022-09-14T09:24:10.950Z,17.54
2022-09-14T09:26:39.034Z,17.29
2022-09-14T09:29:09.443Z,17.07
2022-09-14T09:31:40.922Z,16.84
2022-09-14T09:34:08.061Z,16.00
2022-09-14T09:36:41.433Z,15.97
2022-09-14T09:39:09.355Z,16.36
2022-09-14T09:41:59.377Z,15.94
2022-09-14T09:44:26.695Z,16.01
2022-09-14T09:47:01.796Z,16.33
2022-09-14T09:49:38.724Z,16.63
2022-09-14T09:52:17.512Z,16.44
2022-09-14T09:54:51.295Z,16.09
2022-09-14T09:57:30.177Z,16.25
2022-09-14T10:00:26.506Z,16.45
2022-09-14T10:02:54.512Z,16.65
2022-09-14T10:05:26.034Z,16.67
2022-09-14T10:08:01.253Z,16.94
2022-09-14T10:10:40.041Z,16.62
2022-09-14T10:13:21.654Z,16.61
2022-09-14T10:15:50.176Z,16.49
2022-09-14T10:18:22.421Z,16.26
2022-09-14T10:20:52.563Z,16.49
2022-09-14T10:23:19.347Z,16.63
2022-09-14T10:25:50.810Z,16.67
2022-09-14T10:28:21.859Z,16.38
2022-09-14T10:31:00.751Z,16.96
2022-09-14T10:33:29.356Z,17.37
2022-09-14T10:36:21.066Z,17.73
2022-09-14T10:39:13.133Z,17.46
2022-09-14T10:41:45.911Z,17.24
2022-09-14T10:44:28.925Z,17.07
2022-09-14T10:47:03.919Z,17.94
2022-09-14T10:49:45.007Z,18.24
2022-09-14T10:52:14.735Z,18.24
2022-09-14T10:54:47.219Z,17.58
2022-09-14T10:57:31.352Z,17.79
2022-09-14T11:00:13.185Z,17.81
2022-09-14T11:02:55.631Z,18.36
2022-09-14T11:05:27.898Z,18.12
2022-09-14T11:08:33.649Z,17.95
2022-09-14T11:11:12.381Z,17.63
2022-09-14T11:14:00.129Z,17.60
2022-09-14T11:17:03.537Z,17.58
2022-09-14T11:19:53.234Z,17.38
2022-09-14T11:22:25.987Z,17.43
2022-09-14T11:25:16.986Z,17.15
2022-09-14T11:27:51.971Z,17.22
2022-09-14T11:30:21.612Z,17.21
2022-09-14T11:33:31.045Z,17.53
2022-09-14T11:36:07.466Z,17.01
2022-09-14T11:38:46.532Z,17.12
2022-09-14T11:41:36.593Z,16.92
2022-09-14T11:44:19.586Z,17.22
2022-09-14T11:47:09.756Z,16.73
2022-09-14T11:50:06.181Z,17.31
2022-09-14T11:52:34.131Z,17.15
2022-09-14T11:55:03.073Z,17.17
2022-09-14T11:57:32.278Z,17.19
2022-09-14T12:00:01.627Z,17.19
2022-09-14T12:02:28.281Z,17.36
2022-09-14T12:05:10.800Z,17.91
2022-09-14T12:07:43.676Z,18.00
2022-09-14T12:10:16.764Z,18.47
2022-09-14T12:13:10.007Z,18.45
2022-09-14T12:15:38.214Z,18.54
2022-09-14T12:18:08.224Z,18.17
2022-09-14T12:20:53.025Z,18.38
2022-09-14T12:23:29.803Z,18.25
2022-09-14T12:25:59.366Z,18.47
2022-09-14T12:28:27.802Z,18.31
2022-09-14T12:30:54.449Z,18.51
2022-09-14T12:33:33.596Z,18.56
2022-09-14T12:36:11.933Z,18.40
2022-09-14T12:38:38.550Z,18.57
2022-09-14T12:41:11.346Z,18.73
2022-09-14T12:43:38.266Z,18.76
2022-09-14T12:46:08.079Z,18.44
2022-09-14T12:48:46.851Z,18.57
2022-09-14T12:51:32.534Z,18.80
2022-09-14T12:53:59.428Z,18.55
2022-09-14T12:56:40.993Z,18.48
2022-09-14T12:59:38.844Z,18.70
2022-09-14T13:02:19.406Z,18.61
2022-09-14T13:04:48.217Z,18.63
2022-09-14T13:07:18.118Z,19.23
2022-09-14T13:09:50.720Z,18.82
2022-09-14T13:12:30.989Z,19.23
2022-09-14T13:15:01.763Z,18.97
2022-09-14T13:17:29.169Z,18.81
2022-09-14T13:20:05.893Z,18.58
2022-09-14T13:22:33.838Z,18.44
2022-09-14T13:25:04.187Z,18.42
2022-09-14T13:27:38.850Z,18.28
2022-09-14T13:30:09.577Z,17.99
2022-09-14T13:32:43.847Z,17.74
2022-09-14T13:35:42.017Z,18.07
2022-09-14T13:38:17.615Z,17.46
2022-09-14T13:40:47.545Z,17.55
2022-09-14T13:43:20.419Z,17.74
2022-09-14T13:45:49.245Z,17.38
2022-09-14T13:48:26.646Z,17.02
2022-09-14T13:50:54.054Z,17.60
2022-09-14T13:53:42.904Z,17.18
2022-09-14T13:59:07.349Z,18.04
2022-09-14T14:01:54.540Z,17.25
2022-09-14T14:04:36.892Z,17.92
2022-09-14T14:07:07.200Z,17.68
2022-09-14T14:09:51.643Z,17.77
2022-09-14T14:12:39.817Z,17.91
2022-09-14T14:15:12.599Z,17.87
2022-09-14T14:17:41.822Z,18.01
2022-09-14T14:20:27.121Z,17.61
2022-09-14T14:26:07.901Z,17.01
2022-09-14T14:28:38.259Z,16.47
2022-09-14T14:31:09.397Z,16.70
2022-09-14T14:36:24.823Z,16.63
2022-09-14T14:38:51.605Z,16.61
2022-09-14T14:41:21.731Z,17.04
2022-09-14T14:43:51.028Z,17.08
2022-09-14T14:46:18.080Z,16.71
2022-09-14T14:48:45.101Z,16.97
2022-09-14T14:51:21.806Z,16.72
2022-09-14T14:53:48.875Z,17.11
2022-09-14T14:56:18.246Z,16.91
2022-09-14T14:58:47.136Z,17.19
2022-09-14T15:01:14.339Z,16.63
2022-09-14T15:03:41.170Z,16.55
2022-09-14T15:06:18.943Z,17.04
2022-09-14T15:08:45.629Z,16.73
2022-09-14T15:11:18.757Z,16.68
2022-09-14T15:13:45.720Z,17.19
2022-09-14T15:16:14.032Z,16.95
2022-09-14T15:18:41.529Z,17.37
2022-09-14T15:21:08.934Z,17.07
2022-09-14T15:23:36.320Z,17.20
2022-09-14T15:26:03.519Z,17.14
2022-09-14T15:28:30.824Z,17.29
2022-09-14T15:30:58.425Z,17.34
2022-09-14T15:33:25.148Z,17.22
2022-09-14T15:35:56.473Z,17.34
2022-09-14T15:38:23.977Z,16.69
2022-09-14T15:40:50.820Z,17.03
2022-09-14T15:43:18.575Z,16.84
2022-09-14T15:45:45.473Z,16.59
2022-09-14T15:48:18.036Z,16.72
2022-09-14T15:50:47.840Z,16.79
2022-09-14T15:53:17.039Z,16.93
2022-09-14T15:55:44.738Z,16.90
2022-09-14T15:58:12.216Z,17.03
2022-09-14T16:00:43.579Z,17.67
2022-09-14T16:03:11.104Z,17.28
2022-09-14T16:05:39.318Z,17.14
2022-09-14T16:08:06.910Z,17.04
2022-09-14T16:10:34.184Z,17.09
2022-09-14T16:13:00.960Z,16.45
2022-09-14T16:15:27.851Z,16.91
2022-09-14T16:17:55.653Z,16.98
2022-09-14T16:20:23.076Z,16.72
2022-09-14T16:22:50.443Z,16.45
2022-09-14T16:25:17.910Z,16.59
2022-09-14T16:27:44.968Z,16.02
2022-09-14T16:30:12.176Z,15.67
2022-09-14T16:32:38.996Z,15.50
2022-09-14T16:35:08.243Z,15.39
2022-09-14T16:37:35.290Z,15.50
2022-09-14T16:40:03.777Z,15.42
2022-09-14T16:42:30.867Z,15.40
2022-09-14T16:44:57.570Z,15.29
2022-09-14T16:47:25.875Z,15.65
2022-09-14T16:49:53.309Z,15.48
2022-09-14T16:52:20.163Z,15.09
2022-09-14T16:54:46.976Z,14.80
2022-09-14T16:57:13.865Z,14.85
2022-09-14T16:59:40.603Z,15.25
2022-09-14T17:02:11.519Z,15.36
2022-09-14T17:04:38.469Z,15.04
2022-09-14T17:07:05.378Z,15.25
2022-09-14T17:09:33.143Z,14.66
2022-09-14T17:12:00.425Z,15.28
2022-09-14T17:14:32.690Z,15.12
2022-09-14T17:17:00.216Z,14.94
2022-09-14T17:19:27.208Z,14.86
2022-09-14T17:21:54.331Z,14.78
2022-09-14T17:24:21.760Z,15.29
2022-09-14T17:26:48.933Z,15.03
2022-09-14T17:29:15.815Z,14.74
2022-09-14T17:31:44.658Z,14.90
2022-09-14T17:34:13.542Z,14.80
2022-09-14T17:36:40.335Z,15.16
2022-09-14T17:39:11.615Z,14.95
2022-09-14T17:41:40.244Z,15.00
2022-09-14T17:44:09.763Z,14.49
2022-09-14T17:46:44.390Z,14.24
2022-09-14T17:49:16.237Z,14.29
2022-09-14T17:51:45.403Z,14.17
2022-09-14T17:54:13.041Z,13.92
2022-09-14T17:56:40.643Z,13.77
2022-09-14T17:59:13.014Z,14.05
2022-09-14T18:01:40.508Z,13.83
2022-09-14T18:04:10.844Z,14.13
2022-09-14T18:06:40.935Z,14.04
2022-09-14T18:09:12.276Z,14.19
2022-09-14T18:11:39.594Z,13.82
2022-09-14T18:14:06.998Z,13.85
2022-09-14T18:16:36.130Z,13.59
2022-09-14T18:19:03.364Z,13.90
2022-09-14T18:21:30.686Z,13.75
2022-09-14T18:23:57.501Z,13.74
2022-09-14T18:26:25.450Z,13.43
2022-09-14T18:28:56.316Z,13.48
2022-09-14T18:31:23.272Z,13.14
2022-09-14T18:33:59.541Z,13.32
2022-09-14T18:36:29.186Z,13.67
2022-09-14T18:38:56.722Z,13.73
2022-09-14T18:41:23.481Z,13.74
2022-09-14T18:43:51.848Z,13.55
2022-09-14T18:46:19.412Z,13.90
2022-09-14T18:48:46.820Z,13.55
2022-09-14T18:51:14.694Z,13.48
2022-09-14T18:53:42.017Z,13.42
2022-09-14T18:56:11.154Z,13.71
2022-09-14T18:58:41.624Z,13.62
2022-09-14T19:01:10.131Z,13.78
2022-09-14T19:03:39.953Z,13.93
2022-09-14T19:06:09.531Z,13.82
2022-09-14T19:08:37.218Z,13.73
2022-09-14T19:11:08.908Z,13.97
2022-09-14T19:13:35.978Z,13.89
2022-09-14T19:16:07.944Z,13.98
2022-09-14T19:18:35.682Z,13.95
2022-09-14T19:21:10.840Z,14.03
2022-09-14T19:23:38.827Z,14.09
2022-09-14T19:26:26.423Z,13.85
2022-09-14T19:28:53.340Z,13.71
2022-09-14T19:31:23.491Z,13.93
2022-09-14T19:33:50.314Z,13.95
2022-09-14T19:36:22.401Z,14.07
2022-09-14T19:38:51.211Z,14.10
2022-09-14T19:41:19.364Z,13.96
2022-09-14T19:43:46.303Z,13.71
2022-09-14T19:46:15.917Z,14.02
2022-09-14T19:48:43.415Z,14.00
2022-09-14T19:51:19.208Z,13.90
2022-09-14T19:53:48.077Z,13.94
2022-09-14T19:56:17.153Z,13.99
2022-09-14T19:58:49.562Z,14.10
2022-09-14T20:01:19.055Z,14.32
2022-09-14T20:03:47.043Z,13.94
2022-09-14T20:06:19.600Z,13.85
2022-09-14T20:08:47.703Z,13.54
2022-09-14T20:11:19.943Z,13.57
2022-09-14T20:13:50.854Z,13.52
2022-09-14T20:16:17.929Z,13.32
2022-09-14T20:18:46.414Z,13.30
2022-09-14T20:21:15.985Z,13.43
2022-09-14T20:24:04.419Z,13.48
2022-09-14T20:26:30.244Z,13.35
2022-09-14T20:29:00.125Z,13.38
2022-09-14T20:31:28.711Z,13.20
2022-09-14T20:33:56.620Z,13.24
2022-09-14T20:36:25.308Z,12.73
2022-09-14T20:38:56.685Z,12.90
2022-09-14T20:41:26.465Z,13.17
2022-09-14T20:43:54.050Z,13.16
2022-09-14T20:46:35.007Z,13.07
2022-09-14T20:49:04.343Z,13.02
2022-09-14T20:51:31.333Z,12.93
2022-09-14T20:53:58.557Z,13.07
2022-09-14T20:56:27.427Z,13.14
2022-09-14T20:58:56.236Z,13.21
2022-09-14T21:01:25.257Z,13.23
2022-09-14T21:03:52.714Z,12.83
2022-09-14T21:06:22.530Z,12.86
2022-09-14T21:08:50.069Z,12.86
2022-09-14T21:11:21.823Z,12.91
2022-09-14T21:13:49.483Z,13.00
2022-09-14T21:16:37.862Z,13.21
2022-09-14T21:19:09.077Z,13.11
2022-09-14T21:21:36.068Z,13.14
2022-09-14T21:24:05.771Z,13.13
2022-09-14T21:26:34.297Z,13.14
2022-09-14T21:29:05.038Z,13.07
2022-09-14T21:31:33.864Z,13.39
2022-09-14T21:34:02.563Z,13.19
2022-09-14T21:36:35.901Z,13.17
2022-09-14T21:39:05.362Z,13.39
2022-09-14T21:41:32.493Z,13.38
2022-09-14T21:43:59.354Z,13.25
2022-09-14T21:46:26.557Z,13.05
2022-09-14T21:48:54.911Z,13.23
2022-09-14T21:51:30.725Z,12.97
2022-09-14T21:54:08.928Z,13.09
2022-09-14T21:56:37.487Z,13.08
2022-09-14T21:59:07.720Z,13.10
2022-09-14T22:01:34.834Z,12.91
2022-09-14T22:04:02.296Z,12.54
2022-09-14T22:06:30.464Z,12.65
2022-09-14T22:08:59.978Z,12.87
2022-09-14T22:11:32.779Z,12.89
2022-09-14T22:14:05.482Z,12.72
2022-09-14T22:16:34.554Z,12.68
2022-09-14T22:19:04.278Z,12.77
2022-09-14T22:21:33.449Z,12.71
2022-09-14T22:24:02.271Z,12.66
2022-09-14T22:26:31.414Z,12.67
2022-09-14T22:28:59.185Z,12.70
2022-09-14T22:31:28.174Z,12.62
2022-09-14T22:33:57.191Z,12.41
2022-09-14T22:36:25.761Z,12.40
2022-09-14T22:38:56.824Z,12.43
2022-09-14T22:41:26.177Z,12.45
2022-09-14T22:43:54.123Z,12.52
2022-09-14T22:46:22.226Z,12.51
2022-09-14T22:48:50.611Z,12.28
2022-09-14T22:51:23.032Z,12.52
2022-09-14T22:53:50.454Z,12.39
2022-09-14T22:56:20.350Z,12.27
2022-09-14T22:58:48.190Z,12.21
2022-09-14T23:01:20.301Z,12.20
2022-09-14T23:03:47.352Z,12.19
2022-09-14T23:06:14.739Z,12.17
2022-09-14T23:08:41.883Z,12.10
2022-09-14T23:11:11.883Z,12.27
2022-09-14T23:13:40.803Z,12.28
2022-09-14T23:16:16.441Z,12.12
2022-09-14T23:18:43.874Z,11.84
2022-09-14T23:21:10.964Z,12.05
2022-09-14T23:23:41.269Z,12.03
2022-09-14T23:26:10.322Z,12.19
2022-09-14T23:28:37.218Z,12.04
2022-09-14T23:31:05.177Z,12.00
2022-09-14T23:33:32.502Z,11.86
2022-09-14T23:35:59.419Z,12.13
2022-09-14T23:38:26.319Z,12.16
2022-09-14T23:40:53.156Z,12.15
2022-09-14T23:43:20.397Z,12.05
2022-09-14T23:45:48.071Z,12.00
2022-09-14T23:48:15.478Z,11.88
2022-09-14T23:53:35.411Z,11.72
2022-09-14T23:56:02.868Z,11.91
2022-09-14T23:58:30.564Z,11.95
